Time;durP1;ratioP1;P1;durP2;ratioP2;P2;SDS_P1;SDS_P2;PMS_P1;PMS_P2;Temp;Humidity;BMP_temperature;BMP_pressure;BME280_temperature;BME280_humidity;BME280_pressure;Samples;Min_cycle;Max_cycle;Signal;HPM_P1;HPM_P2
2024/04/17 00:00:43;;;;;;;0.15;0.00;;;7.40;99.90;;;;;;5070491;28;20397;-63
2024/04/17 00:03:10;;;;;;;0.00;0.00;;;7.40;99.90;;;;;;5067757;28;20481;-63
2024/04/17 00:05:36;;;;;;;0.00;0.00;;;7.30;99.90;;;;;;5077256;28;20081;-63
2024/04/17 00:08:03;;;;;;;0.00;0.00;;;7.30;99.90;;;;;;5071512;28;20005;-63
2024/04/17 00:10:29;;;;;;;0.00;0.00;;;7.30;99.90;;;;;;5075347;28;20134;-63
2024/04/17 00:12:55;;;;;;;0.52;0.10;;;7.30;99.90;;;;;;5069051;28;20881;-63
2024/04/17 00:15:20;;;;;;;0.00;0.00;;;7.30;99.90;;;;;;5132898;22;20089;-63
2024/04/17 00:17:46;;;;;;;0.10;0.10;;;7.30;99.90;;;;;;5131961;27;20016;-63
2024/04/17 00:20:12;;;;;;;0.00;0.00;;;7.30;99.90;;;;;;5105900;27;20355;-63
2024/04/17 00:22:38;;;;;;;0.00;0.00;;;7.30;99.90;;;;;;5103836;27;20335;-63
2024/04/17 00:25:04;;;;;;;0.00;0.00;;;7.20;99.90;;;;;;5134428;27;20024;-63
2024/04/17 00:27:30;;;;;;;0.00;0.00;;;7.20;99.90;;;;;;5132882;27;20054;-63
2024/04/17 00:29:56;;;;;;;0.00;0.00;;;7.20;99.90;;;;;;5131716;27;20411;-63
2024/04/17 00:32:22;;;;;;;0.00;0.00;;;7.20;99.90;;;;;;5133141;27;20001;-63
2024/04/17 00:34:48;;;;;;;0.00;0.00;;;7.10;99.90;;;;;;5134070;27;20441;-63
2024/04/17 00:37:13;;;;;;;0.00;0.00;;;7.10;99.90;;;;;;5133695;27;20033;-63
2024/04/17 00:39:39;;;;;;;0.00;0.00;;;7.10;99.90;;;;;;5105389;27;20085;-62
2024/04/17 00:42:05;;;;;;;0.00;0.00;;;7.10;99.90;;;;;;5133533;27;20016;-63
2024/04/17 00:44:31;;;;;;;0.00;0.00;;;7.10;99.90;;;;;;5132634;27;20081;-63
2024/04/17 00:46:57;;;;;;;0.00;0.00;;;7.10;99.90;;;;;;5132960;27;20558;-63
2024/04/17 00:49:24;;;;;;;0.00;0.00;;;7.10;99.90;;;;;;5133647;27;20024;-63
2024/04/17 00:51:50;;;;;;;0.00;0.00;;;7.10;99.90;;;;;;5133261;27;20017;-63
2024/04/17 00:54:17;;;;;;;0.00;0.00;;;7.00;99.90;;;;;;5104094;27;20529;-63
2024/04/17 00:56:44;;;;;;;0.00;0.00;;;7.00;99.90;;;;;;5133051;27;20056;-63
2024/04/17 00:59:10;;;;;;;0.00;0.00;;;7.00;99.90;;;;;;5132893;27;20013;-63
2024/04/17 01:01:36;;;;;;;0.00;0.00;;;7.00;99.90;;;;;;5132957;27;20009;-63
2024/04/17 01:04:03;;;;;;;0.10;0.10;;;7.00;99.90;;;;;;5133469;27;20020;-63
2024/04/17 01:06:29;;;;;;;0.00;0.00;;;7.00;99.90;;;;;;5132917;27;20464;-63
2024/04/17 01:08:55;;;;;;;0.00;0.00;;;7.00;99.90;;;;;;5130942;27;20024;-63
2024/04/17 01:11:21;;;;;;;0.00;0.00;;;7.00;99.90;;;;;;5133047;27;20507;-63
2024/04/17 01:13:47;;;;;;;0.00;0.00;;;7.00;99.90;;;;;;5132193;27;20005;-63
2024/04/17 01:16:13;;;;;;;0.00;0.00;;;7.00;99.90;;;;;;5133179;27;20052;-62
2024/04/17 01:18:39;;;;;;;0.00;0.00;;;7.00;99.90;;;;;;5132065;27;20412;-63
2024/04/17 01:21:05;;;;;;;0.00;0.00;;;7.00;99.90;;;;;;5132700;27;20006;-63
2024/04/17 01:23:31;;;;;;;0.00;0.00;;;7.00;99.90;;;;;;5131948;27;20608;-63
2024/04/17 01:25:57;;;;;;;0.00;0.00;;;7.00;99.90;;;;;;5143419;27;20073;-63
2024/04/17 01:28:23;;;;;;;0.00;0.00;;;7.10;99.90;;;;;;5131762;27;20013;-63
2024/04/17 01:30:49;;;;;;;0.00;0.00;;;7.10;99.90;;;;;;5133533;27;20436;-63
2024/04/17 01:33:15;;;;;;;0.00;0.00;;;7.10;99.90;;;;;;5127923;27;20044;-62
2024/04/17 01:35:41;;;;;;;0.00;0.00;;;7.20;99.90;;;;;;5132687;27;20092;-63
2024/04/17 01:38:07;;;;;;;0.00;0.00;;;7.20;99.90;;;;;;5132722;27;20013;-63
2024/04/17 01:40:35;;;;;;;0.00;0.00;;;7.20;99.90;;;;;;5132470;27;20345;-63
2024/04/17 01:43:01;;;;;;;0.00;0.00;;;7.30;99.90;;;;;;5132736;27;20625;-63
2024/04/17 01:45:27;;;;;;;0.00;0.00;;;7.30;99.90;;;;;;5132559;27;20013;-63
2024/04/17 01:47:55;;;;;;;0.00;0.00;;;7.30;99.90;;;;;;5133480;27;20041;-63
2024/04/17 01:50:28;;;;;;;0.80;0.00;;;7.30;99.90;;;;;;5112346;27;20009;-63
2024/04/17 01:52:54;;;;;;;0.00;0.00;;;7.30;99.90;;;;;;5132355;27;20084;-63
2024/04/17 01:55:20;;;;;;;0.00;0.00;;;7.40;99.90;;;;;;5132512;27;20336;-63
2024/04/17 01:57:46;;;;;;;0.00;0.00;;;7.40;99.90;;;;;;5132120;27;20001;-63
2024/04/17 02:00:12;;;;;;;0.00;0.00;;;7.40;99.90;;;;;;5132448;27;20333;-63
2024/04/17 02:02:38;;;;;;;0.00;0.00;;;7.40;99.90;;;;;;5131304;27;20013;-63
2024/04/17 02:05:08;;;;;;;0.00;0.00;;;7.40;99.90;;;;;;5135365;27;20024;-63
2024/04/17 02:07:35;;;;;;;0.00;0.00;;;7.20;99.90;;;;;;5135980;27;20020;-63
2024/04/17 02:10:02;;;;;;;0.00;0.00;;;7.00;99.90;;;;;;5136102;27;20085;-63
2024/04/17 02:12:28;;;;;;;0.00;0.00;;;6.90;99.90;;;;;;5131665;27;20005;-63
2024/04/17 02:14:53;;;;;;;0.00;0.00;;;6.70;99.90;;;;;;5134268;27;20043;-63
2024/04/17 02:17:19;;;;;;;0.00;0.00;;;6.60;99.90;;;;;;5135291;27;20005;-63
2024/04/17 02:19:47;;;;;;;0.00;0.00;;;6.50;99.90;;;;;;5134935;27;20001;-63
2024/04/17 02:22:12;;;;;;;0.00;0.00;;;6.50;99.90;;;;;;5135430;27;20013;-63
2024/04/17 02:24:38;;;;;;;0.00;0.00;;;6.50;1.00;;;;;;5135035;27;20348;-63
2024/04/17 02:27:04;;;;;;;0.10;0.10;;;6.50;1.00;;;;;;5136206;27;20013;-63
2024/04/17 02:29:30;;;;;;;0.00;0.00;;;6.50;1.00;;;;;;5134758;27;20069;-63
2024/04/17 02:31:56;;;;;;;0.00;0.00;;;6.50;1.00;;;;;;5142562;27;20045;-63
2024/04/17 02:34:22;;;;;;;0.00;0.00;;;6.60;6.00;;;;;;5134136;27;20525;-64
2024/04/17 02:36:48;;;;;;;0.03;0.03;;;6.60;65.40;;;;;;5134395;27;20013;-64
2024/04/17 02:39:14;;;;;;;0.00;0.00;;;6.60;97.70;;;;;;5135282;27;20088;-63
2024/04/17 02:41:39;;;;;;;0.00;0.00;;;6.60;99.90;;;;;;5134877;27;20550;-63
2024/04/17 02:44:07;;;;;;;0.00;0.00;;;6.70;99.90;;;;;;5107195;27;20432;-63
2024/04/17 02:46:33;;;;;;;0.00;0.00;;;6.70;99.90;;;;;;5134607;27;20470;-63
2024/04/17 02:48:58;;;;;;;0.10;0.00;;;6.70;99.90;;;;;;5135023;27;20017;-63
2024/04/17 02:51:25;;;;;;;0.10;0.10;;;6.80;99.90;;;;;;5135979;27;20013;-63
2024/04/17 02:53:51;;;;;;;0.00;0.00;;;6.80;99.90;;;;;;5134358;27;20049;-64
2024/04/17 02:56:18;;;;;;;0.00;0.00;;;6.70;99.90;;;;;;5135708;27;20383;-64
2024/04/17 02:58:44;;;;;;;0.00;0.00;;;6.80;99.90;;;;;;5133384;27;20005;-63
2024/04/17 03:01:11;;;;;;;0.10;0.10;;;6.70;99.90;;;;;;5135869;27;20479;-63
2024/04/17 03:03:37;;;;;;;0.00;0.00;;;6.70;99.90;;;;;;5131995;27;20339;-63
2024/04/17 03:06:04;;;;;;;0.00;0.00;;;6.70;99.90;;;;;;5118999;27;20005;-63
2024/04/17 03:08:51;;;;;;;0.00;0.00;;;6.70;88.70;;;;;;5111044;27;20009;-63
2024/04/17 03:11:17;;;;;;;0.10;0.10;;;6.70;50.60;;;;;;5134936;27;20041;-63
2024/04/17 03:14:03;;;;;;;0.00;0.00;;;6.70;18.90;;;;;;5110949;27;20534;-63
2024/04/17 03:16:42;;;;;;;0.00;0.00;;;6.60;1.00;;;;;;5135057;27;20024;-63
2024/04/17 03:19:09;;;;;;;0.10;0.10;;;6.60;1.00;;;;;;5133839;27;20023;-63
2024/04/17 03:21:36;;;;;;;0.00;0.00;;;6.60;1.00;;;;;;5135461;27;20488;-63
2024/04/17 03:24:02;;;;;;;0.00;0.00;;;6.60;1.00;;;;;;5133527;27;20016;-63
2024/04/17 03:26:28;;;;;;;0.00;0.00;;;6.60;1.00;;;;;;5134772;27;20021;-63
2024/04/17 03:28:54;;;;;;;0.00;0.00;;;6.60;1.00;;;;;;5133386;27;20001;-63
2024/04/17 03:31:21;;;;;;;0.00;0.00;;;6.60;1.00;;;;;;5135478;27;20348;-63
2024/04/17 03:33:47;;;;;;;0.00;0.00;;;6.60;1.00;;;;;;5133441;27;20013;-63
2024/04/17 03:36:13;;;;;;;0.00;0.00;;;6.60;1.00;;;;;;5135252;27;20014;-63
2024/04/17 03:38:59;;;;;;;0.00;0.00;;;6.70;1.00;;;;;;5134178;27;20012;-63
2024/04/17 03:41:26;;;;;;;0.00;0.00;;;6.70;1.00;;;;;;5128351;27;20024;-63
2024/04/17 03:43:52;;;;;;;0.00;0.00;;;6.70;1.00;;;;;;5134734;27;20005;-63
2024/04/17 03:46:19;;;;;;;0.00;0.00;;;6.70;1.00;;;;;;5133829;27;20021;-63
2024/04/17 03:48:45;;;;;;;0.00;0.00;;;6.70;1.00;;;;;;5130800;27;20017;-63
2024/04/17 03:51:10;;;;;;;0.00;0.00;;;6.70;1.00;;;;;;5133609;27;20024;-63
2024/04/17 03:53:37;;;;;;;0.00;0.00;;;6.70;99.90;;;;;;5133647;27;20020;-63
2024/04/17 03:56:08;;;;;;;0.00;0.00;;;6.70;99.90;;;;;;5135774;27;20088;-63
2024/04/17 03:58:34;;;;;;;0.20;0.08;;;6.70;99.90;;;;;;5132542;27;20005;-63
2024/04/17 04:01:00;;;;;;;0.00;0.00;;;6.70;1.00;;;;;;5135204;27;20032;-63
2024/04/17 04:03:26;;;;;;;0.00;0.00;;;6.70;1.00;;;;;;5133102;27;20029;-63
2024/04/17 04:06:12;;;;;;;0.00;0.00;;;6.70;1.00;;;;;;5111857;27;20343;-63
2024/04/17 04:08:39;;;;;;;0.00;0.00;;;6.60;1.00;;;;;;5132740;27;20013;-64
2024/04/17 04:11:05;;;;;;;0.00;0.00;;;6.60;1.00;;;;;;5134291;27;20009;-63
2024/04/17 04:13:31;;;;;;;0.00;0.00;;;6.50;1.00;;;;;;5134127;27;20009;-63
2024/04/17 04:15:56;;;;;;;0.00;0.00;;;6.40;1.00;;;;;;5134114;27;20096;-64
2024/04/17 04:18:22;;;;;;;0.00;0.00;;;6.30;1.00;;;;;;5133353;27;20353;-64
2024/04/17 04:20:48;;;;;;;0.00;0.00;;;6.30;1.00;;;;;;5133781;27;20452;-63
2024/04/17 04:23:15;;;;;;;0.00;0.00;;;6.20;1.00;;;;;;5134280;27;20013;-64
2024/04/17 04:25:42;;;;;;;0.00;0.00;;;6.20;1.00;;;;;;5133171;27;20005;-64
2024/04/17 04:28:27;;;;;;;0.55;0.03;;;6.20;16.10;;;;;;5108852;27;20037;-64
2024/04/17 04:30:55;;;;;;;0.73;0.00;;;6.10;78.70;;;;;;5134377;27;20020;-64
2024/04/17 04:33:21;;;;;;;0.00;0.00;;;6.10;99.90;;;;;;5132464;27;20461;-64
2024/04/17 04:35:46;;;;;;;0.00;0.00;;;6.10;99.90;;;;;;5135106;27;20030;-64
2024/04/17 04:38:12;;;;;;;0.00;0.00;;;6.00;99.90;;;;;;5131623;27;20005;-64
2024/04/17 04:40:38;;;;;;;0.00;0.00;;;6.00;99.90;;;;;;5134120;27;20019;-63
2024/04/17 04:43:07;;;;;;;0.00;0.00;;;6.00;99.90;;;;;;5104568;27;20066;-63
2024/04/17 04:45:33;;;;;;;0.00;0.00;;;6.00;99.90;;;;;;5127952;27;20433;-63
2024/04/17 04:47:59;;;;;;;0.00;0.00;;;6.00;99.90;;;;;;5134274;27;20009;-63
2024/04/17 04:50:25;;;;;;;0.00;0.00;;;6.00;99.90;;;;;;5132852;27;20013;-64
2024/04/17 04:52:51;;;;;;;0.00;0.00;;;6.00;99.90;;;;;;5134085;27;20021;-63
2024/04/17 04:55:17;;;;;;;0.00;0.00;;;6.00;99.90;;;;;;5132191;27;20009;-63
2024/04/17 04:57:45;;;;;;;0.00;0.00;;;6.00;99.90;;;;;;5133336;27;20020;-63
2024/04/17 05:00:11;;;;;;;0.00;0.00;;;6.00;99.90;;;;;;5132372;27;20224;-63
2024/04/17 05:02:38;;;;;;;0.00;0.00;;;6.00;99.90;;;;;;5105219;27;20057;-63
2024/04/17 05:05:04;;;;;;;0.00;0.00;;;6.00;99.90;;;;;;5132891;27;20009;-63
2024/04/17 05:07:30;;;;;;;0.00;0.00;;;6.00;99.90;;;;;;5132915;27;20013;-63
2024/04/17 05:09:57;;;;;;;0.00;0.00;;;6.10;1.00;;;;;;5133774;27;20024;-63
2024/04/17 05:12:23;;;;;;;0.10;0.00;;;6.00;1.00;;;;;;5133064;27;20388;-63
2024/04/17 05:14:49;;;;;;;0.00;0.00;;;6.10;1.00;;;;;;5133587;27;20057;-63
2024/04/17 05:17:14;;;;;;;0.00;0.00;;;6.10;1.00;;;;;;5132253;27;20005;-63
2024/04/17 05:19:40;;;;;;;0.00;0.00;;;6.20;1.00;;;;;;5132819;27;20081;-64
2024/04/17 05:22:06;;;;;;;0.00;0.00;;;6.10;33.00;;;;;;5133750;27;20093;-63
2024/04/17 05:24:32;;;;;;;0.00;0.00;;;6.20;81.60;;;;;;5131396;27;20005;-63
2024/04/17 05:26:58;;;;;;;0.00;0.00;;;6.10;99.90;;;;;;5134262;27;20751;-63
2024/04/17 05:29:24;;;;;;;0.00;0.00;;;6.20;99.90;;;;;;5131413;27;20152;-63
2024/04/17 05:31:49;;;;;;;0.00;0.00;;;6.20;99.90;;;;;;5133502;27;20337;-63
2024/04/17 05:34:15;;;;;;;0.00;0.00;;;6.20;99.90;;;;;;5131674;27;20085;-63
2024/04/17 05:36:41;;;;;;;0.00;0.00;;;6.20;99.90;;;;;;5133210;27;20252;-63
2024/04/17 05:39:07;;;;;;;0.00;0.00;;;6.20;99.90;;;;;;5133067;27;20022;-63
2024/04/17 05:41:33;;;;;;;0.00;0.00;;;6.20;99.90;;;;;;5136108;27;20025;-63
2024/04/17 05:43:59;;;;;;;0.00;0.00;;;6.30;99.90;;;;;;5136081;27;20005;-63
2024/04/17 05:46:25;;;;;;;0.00;0.00;;;6.30;99.90;;;;;;5135507;27;20084;-63
2024/04/17 05:48:51;;;;;;;0.00;0.00;;;6.20;99.90;;;;;;5116439;27;20389;-63
2024/04/17 05:51:20;;;;;;;0.00;0.00;;;6.30;99.90;;;;;;5135686;27;20020;-63
2024/04/17 05:53:46;;;;;;;0.00;0.00;;;6.30;99.90;;;;;;5107677;27;20057;-63
2024/04/17 05:56:12;;;;;;;0.00;0.00;;;6.30;99.90;;;;;;5135834;27;20013;-64
2024/04/17 05:58:38;;;;;;;0.00;0.00;;;6.40;99.90;;;;;;5135038;27;20021;-63
2024/04/17 06:01:04;;;;;;;0.00;0.00;;;6.40;99.90;;;;;;5135470;27;20021;-63
2024/04/17 06:03:30;;;;;;;0.00;0.00;;;6.30;99.90;;;;;;5135665;27;20092;-63
2024/04/17 06:05:56;;;;;;;0.00;0.00;;;6.40;99.90;;;;;;5135334;27;20009;-63
2024/04/17 06:08:22;;;;;;;0.00;0.00;;;6.40;99.90;;;;;;5106315;27;20468;-64
2024/04/17 06:10:48;;;;;;;0.00;0.00;;;6.40;99.90;;;;;;5134961;27;20317;-63
2024/04/17 06:13:17;;;;;;;0.00;0.00;;;6.40;99.90;;;;;;5135204;27;20020;-64
2024/04/17 06:15:45;;;;;;;0.00;0.00;;;6.40;99.90;;;;;;5132971;27;20002;-63
2024/04/17 06:18:13;;;;;;;0.00;0.00;;;6.40;99.90;;;;;;5134758;27;20480;-63
2024/04/17 06:20:41;;;;;;;0.00;0.00;;;6.40;99.90;;;;;;5132641;27;20005;-64
2024/04/17 06:23:06;;;;;;;0.00;0.00;;;6.40;99.90;;;;;;5134121;27;20013;-64
2024/04/17 06:25:32;;;;;;;0.00;0.00;;;6.40;99.90;;;;;;5132440;27;20448;-64
2024/04/17 06:27:58;;;;;;;0.00;0.00;;;6.50;99.90;;;;;;5113090;27;20013;-64
2024/04/17 06:30:24;;;;;;;0.00;0.00;;;6.50;99.90;;;;;;5131693;27;20006;-63
2024/04/17 06:32:50;;;;;;;0.00;0.00;;;6.50;99.90;;;;;;5133627;27;20017;-64
2024/04/17 06:35:15;;;;;;;0.00;0.00;;;6.50;99.90;;;;;;5133345;27;20084;-64
2024/04/17 06:37:41;;;;;;;0.00;0.00;;;6.60;99.90;;;;;;5133887;27;20369;-64
2024/04/17 06:40:07;;;;;;;0.00;0.00;;;6.50;99.90;;;;;;5134026;27;20284;-64
2024/04/17 06:42:33;;;;;;;0.00;0.00;;;6.40;99.90;;;;;;5133148;27;20021;-64
2024/04/17 06:45:01;;;;;;;0.00;0.00;;;6.30;99.90;;;;;;5128519;27;20020;-64
2024/04/17 06:47:27;;;;;;;0.00;0.00;;;6.20;99.90;;;;;;5133821;27;20472;-64
2024/04/17 06:49:53;;;;;;;0.00;0.00;;;6.10;99.90;;;;;;5131441;27;20093;-63
2024/04/17 06:52:19;;;;;;;0.00;0.00;;;6.10;99.90;;;;;;5133621;27;20032;-63
2024/04/17 06:54:45;;;;;;;0.00;0.00;;;6.10;99.90;;;;;;5133038;27;20002;-65
2024/04/17 06:57:11;;;;;;;0.00;0.00;;;6.00;99.90;;;;;;5133794;27;20009;-65
2024/04/17 06:59:36;;;;;;;0.00;0.00;;;6.00;99.90;;;;;;5133343;27;20024;-63
2024/04/17 07:02:02;;;;;;;0.00;0.00;;;6.00;99.90;;;;;;5132863;27;20016;-63
2024/04/17 07:04:28;;;;;;;0.00;0.00;;;6.10;99.90;;;;;;5103952;27;20064;-63
2024/04/17 07:06:55;;;;;;;0.00;0.00;;;6.10;99.90;;;;;;5105089;27;20088;-63
2024/04/17 07:09:21;;;;;;;0.00;0.00;;;6.30;99.90;;;;;;5132357;27;20005;-63
2024/04/17 07:11:47;;;;;;;0.00;0.00;;;6.40;99.90;;;;;;5131367;27;20009;-63
2024/04/17 07:14:13;;;;;;;0.00;0.00;;;6.50;99.90;;;;;;5133394;27;20135;-63
2024/04/17 07:16:39;;;;;;;0.00;0.00;;;6.60;99.90;;;;;;5133178;27;20486;-63
2024/04/17 07:19:05;;;;;;;0.00;0.00;;;6.60;99.90;;;;;;5132889;27;20341;-63
2024/04/17 07:21:31;;;;;;;0.00;0.00;;;6.70;99.90;;;;;;5133401;27;20016;-63
2024/04/17 07:23:56;;;;;;;0.00;0.00;;;6.60;99.90;;;;;;5132799;27;20017;-63
2024/04/17 07:26:22;;;;;;;0.00;0.00;;;6.60;99.90;;;;;;5098767;27;20054;-63
2024/04/17 07:28:49;;;;;;;0.00;0.00;;;6.70;99.90;;;;;;5133377;27;20013;-63
2024/04/17 07:31:14;;;;;;;0.00;0.00;;;6.70;99.90;;;;;;5129795;27;20021;-63
2024/04/17 07:33:40;;;;;;;0.00;0.00;;;6.60;99.90;;;;;;5133632;27;20024;-63
2024/04/17 07:36:06;;;;;;;0.00;0.00;;;6.50;99.90;;;;;;5130231;27;20092;-63
2024/04/17 07:38:32;;;;;;;0.00;0.00;;;6.30;99.90;;;;;;5131626;27;20013;-62
2024/04/17 07:41:00;;;;;;;0.00;0.00;;;6.30;99.90;;;;;;5132307;27;20041;-63
2024/04/17 07:43:30;;;;;;;0.00;0.00;;;6.10;99.90;;;;;;5133166;27;20028;-63
2024/04/17 07:45:57;;;;;;;;;;;6.10;99.90;;;;;;5132691;27;20077;-63
2024/04/17 07:48:23;;;;;;;0.00;0.00;;;6.20;99.90;;;;;;5132816;27;20427;-63
2024/04/17 07:50:48;;;;;;;0.00;0.00;;;6.30;99.90;;;;;;5132111;27;20033;-63
2024/04/17 07:53:15;;;;;;;0.00;0.00;;;6.40;99.90;;;;;;5132685;27;20014;-62
2024/04/17 07:55:41;;;;;;;0.00;0.00;;;6.50;99.90;;;;;;5132145;27;20005;-62
2024/04/17 07:58:07;;;;;;;0.00;0.00;;;6.60;99.90;;;;;;5131240;27;20467;-62
2024/04/17 08:00:35;;;;;;;0.00;0.00;;;6.80;99.90;;;;;;5131967;27;20329;-62
2024/04/17 08:03:01;;;;;;;0.00;0.00;;;6.90;99.90;;;;;;5131240;27;20024;-62
2024/04/17 08:05:28;;;;;;;0.00;0.00;;;6.90;99.90;;;;;;5130653;27;20005;-62
2024/04/17 08:07:54;;;;;;;0.00;0.00;;;7.10;99.90;;;;;;5132105;27;20610;-62
2024/04/17 08:10:20;;;;;;;0.00;0.00;;;7.10;99.90;;;;;;5129937;27;20513;-62
2024/04/17 08:12:47;;;;;;;0.00;0.00;;;7.20;99.90;;;;;;5133027;27;20009;-62
2024/04/17 08:15:14;;;;;;;0.00;0.00;;;7.10;99.90;;;;;;5129603;27;20452;-62
2024/04/17 08:17:42;;;;;;;0.00;0.00;;;7.20;99.90;;;;;;5104657;27;20013;-62
2024/04/17 08:20:10;;;;;;;0.00;0.00;;;7.30;99.90;;;;;;5130430;27;20013;-62
2024/04/17 08:22:36;;;;;;;0.00;0.00;;;7.30;99.90;;;;;;5104755;27;20053;-62
2024/04/17 08:25:01;;;;;;;0.00;0.00;;;7.30;99.90;;;;;;5129960;27;20085;-62
2024/04/17 08:27:28;;;;;;;0.00;0.00;;;7.30;99.90;;;;;;5132865;27;20476;-62
2024/04/17 08:29:54;;;;;;;0.00;0.00;;;7.20;99.90;;;;;;5121421;27;20001;-62
2024/04/17 08:32:21;;;;;;;0.00;0.00;;;7.10;99.90;;;;;;5132055;27;20530;-62
2024/04/17 08:34:47;;;;;;;0.00;0.00;;;7.20;99.90;;;;;;5131196;27;20005;-62
2024/04/17 08:37:13;;;;;;;0.00;0.00;;;7.20;99.90;;;;;;5132614;27;20009;-62
2024/04/17 08:39:38;;;;;;;0.00;0.00;;;7.10;99.90;;;;;;5120808;27;20021;-62
2024/04/17 08:42:06;;;;;;;0.00;0.00;;;7.10;99.90;;;;;;5132738;27;20089;-62
2024/04/17 08:44:40;;;;;;;0.00;0.00;;;7.10;99.90;;;;;;5130766;27;20021;-62
2024/04/17 08:47:09;;;;;;;0.00;0.00;;;7.10;99.90;;;;;;5132471;27;20013;-62
2024/04/17 08:49:36;;;;;;;0.00;0.00;;;7.10;99.90;;;;;;5131232;27;20005;-62
2024/04/17 08:52:03;;;;;;;0.00;0.00;;;7.10;99.90;;;;;;5130851;27;20535;-62
2024/04/17 08:54:30;;;;;;;0.00;0.00;;;7.10;99.90;;;;;;5103460;27;20005;-62
2024/04/17 08:56:57;;;;;;;0.00;0.00;;;7.00;99.90;;;;;;5131339;27;20019;-63
2024/04/17 08:59:23;;;;;;;0.00;0.00;;;7.10;99.90;;;;;;5120392;27;20001;-63
2024/04/17 09:01:50;;;;;;;0.00;0.00;;;7.10;99.90;;;;;;5129244;27;20021;-62
2024/04/17 09:04:17;;;;;;;0.00;0.00;;;7.20;99.90;;;;;;5127040;27;20012;-62
2024/04/17 09:06:45;;;;;;;0.00;0.00;;;7.30;99.90;;;;;;5130063;27;20013;-62
2024/04/17 09:09:14;;;;;;;0.00;0.00;;;7.40;99.90;;;;;;5089200;27;20010;-62
2024/04/17 09:11:41;;;;;;;0.00;0.00;;;7.50;99.90;;;;;;5123070;27;20051;-62
2024/04/17 09:14:08;;;;;;;0.00;0.00;;;7.50;99.90;;;;;;5058421;28;20010;-62
2024/04/17 09:16:34;;;;;;;0.00;0.00;;;7.50;99.90;;;;;;5091707;28;20146;-62
2024/04/17 09:19:00;;;;;;;0.00;0.00;;;7.60;99.90;;;;;;5079676;27;20002;-62
2024/04/17 09:21:26;;;;;;;0.00;0.00;;;7.60;99.90;;;;;;5089881;28;20689;-62
2024/04/17 09:23:52;;;;;;;0.00;0.00;;;7.70;99.90;;;;;;5087162;27;20006;-62
2024/04/17 09:26:18;;;;;;;0.00;0.00;;;7.80;99.90;;;;;;5070789;28;20116;-62
2024/04/17 09:28:45;;;;;;;0.00;0.00;;;7.80;99.90;;;;;;5072576;27;20485;-62
2024/04/17 09:31:11;;;;;;;0.00;0.00;;;7.60;38.20;;;;;;5089410;27;20041;-63
2024/04/17 09:33:47;;;;;;;0.00;0.00;;;7.70;16.10;;;;;;5085937;27;20903;-62
2024/04/17 09:36:14;;;;;;;0.00;0.00;;;7.70;1.00;;;;;;5087610;27;20032;-62
2024/04/17 09:38:43;;;;;;;0.00;0.00;;;7.80;1.00;;;;;;5072783;28;20943;-62
2024/04/17 09:41:09;;;;;;;0.00;0.00;;;7.80;1.00;;;;;;5082467;27;20629;-62
2024/04/17 09:43:42;;;;;;;0.00;0.00;;;7.70;1.00;;;;;;5077040;27;20436;-63
2024/04/17 09:46:09;;;;;;;0.00;0.00;;;7.80;99.90;;;;;;5076098;27;20006;-62
2024/04/17 09:48:41;;;;;;;0.00;0.00;;;7.90;1.00;;;;;;5071014;27;20466;-62
2024/04/17 09:51:20;;;;;;;0.00;0.00;;;8.00;99.90;;;;;;5082467;28;20006;-63
2024/04/17 09:53:59;;;;;;;0.00;0.00;;;8.00;99.90;;;;;;5087473;28;20338;-62
2024/04/17 09:56:29;;;;;;;0.00;0.00;;;8.10;99.90;;;;;;5087713;27;20014;-63
2024/04/17 09:58:56;;;;;;;0.00;0.00;;;8.20;99.90;;;;;;5080432;27;20377;-62
2024/04/17 10:01:23;;;;;;;0.00;0.00;;;8.30;99.90;;;;;;5082948;27;20014;-63
2024/04/17 10:03:50;;;;;;;0.00;0.00;;;8.30;57.80;;;;;;5068570;27;20015;-62
2024/04/17 10:06:17;;;;;;;0.00;0.00;;;8.30;1.00;;;;;;5078525;27;20007;-63
2024/04/17 10:08:44;;;;;;;0.00;0.00;;;8.30;1.00;;;;;;5084452;28;20680;-63
2024/04/17 10:11:10;;;;;;;0.00;0.00;;;8.20;1.00;;;;;;5076003;27;20769;-63
2024/04/17 10:13:36;;;;;;;0.10;0.00;;;8.40;1.00;;;;;;5089168;28;20014;-63
2024/04/17 10:16:04;;;;;;;0.00;0.00;;;8.40;99.90;;;;;;5079807;28;20010;-63
2024/04/17 10:18:32;;;;;;;0.00;0.00;;;8.60;1.00;;;;;;5063916;27;20029;-63
2024/04/17 10:20:58;;;;;;;0.00;0.00;;;8.70;99.90;;;;;;5081179;27;20006;-62
2024/04/17 10:23:27;;;;;;;0.20;0.00;;;8.90;1.00;;;;;;5091588;27;20010;-63
2024/04/17 10:25:57;;;;;;;0.00;0.00;;;9.10;1.00;;;;;;5070654;27;20455;-64
2024/04/17 10:28:27;;;;;;;0.00;0.00;;;9.10;99.90;;;;;;5095581;28;20015;-63
2024/04/17 10:30:58;;;;;;;0.00;0.00;;;9.20;99.90;;;;;;5096206;28;20012;-63
2024/04/17 10:33:33;;;;;;;0.00;0.00;;;9.20;99.90;;;;;;5097236;28;20656;-63
2024/04/17 10:36:06;;;;;;;0.00;0.00;;;9.20;99.90;;;;;;5097778;27;20024;-63
2024/04/17 10:38:33;;;;;;;0.00;0.00;;;9.40;99.90;;;;;;5094499;27;20018;-63
2024/04/17 10:41:01;;;;;;;0.00;0.00;;;9.50;99.90;;;;;;5080975;27;20011;-64
2024/04/17 10:43:28;;;;;;;0.00;0.00;;;9.50;99.90;;;;;;5075014;27;20025;-63
2024/04/17 10:46:20;;;;;;;0.00;0.00;;;9.60;99.90;;;;;;5081694;28;20079;-63
2024/04/17 10:48:50;;;;;;;0.00;0.00;;;9.50;99.90;;;;;;5075311;28;20579;-63
2024/04/17 10:51:17;;;;;;;0.00;0.00;;;9.50;99.90;;;;;;5088490;27;20034;-63
2024/04/17 10:53:47;;;;;;;0.00;0.00;;;9.40;99.90;;;;;;5073096;27;20058;-63
2024/04/17 10:56:13;;;;;;;;;;;9.50;99.90;;;;;;5051884;28;20045;-63
2024/04/17 10:58:39;;;;;;;0.00;0.00;;;9.70;99.90;;;;;;5091484;27;20269;-64
2024/04/17 11:01:06;;;;;;;0.00;0.00;;;9.80;99.90;;;;;;5097914;28;20016;-63
2024/04/17 11:03:32;;;;;;;0.00;0.00;;;10.00;99.90;;;;;;5089139;27;20033;-63
2024/04/17 11:05:58;;;;;;;0.00;0.00;;;10.10;99.90;;;;;;5094686;28;20006;-63
2024/04/17 11:08:24;;;;;;;0.00;0.00;;;10.20;99.90;;;;;;5090982;27;20022;-63
2024/04/17 11:10:50;;;;;;;0.00;0.00;;;10.30;81.90;;;;;;5076037;27;20100;-63
2024/04/17 11:13:17;;;;;;;0.00;0.00;;;10.40;91.00;;;;;;5094516;27;20017;-63
2024/04/17 11:15:44;;;;;;;0.00;0.00;;;10.50;99.90;;;;;;5069406;28;20086;-63
2024/04/17 11:18:11;;;;;;;0.00;0.00;;;10.50;84.30;;;;;;5079897;27;20239;-63
2024/04/17 11:20:38;;;;;;;0.00;0.00;;;10.50;99.90;;;;;;5099699;27;20469;-64
2024/04/17 11:23:08;;;;;;;0.00;0.00;;;10.60;99.90;;;;;;5091221;28;20019;-63
2024/04/17 11:25:40;;;;;;;0.00;0.00;;;10.60;99.90;;;;;;5083785;27;20061;-63
2024/04/17 11:28:10;;;;;;;0.00;0.00;;;10.60;1.00;;;;;;5097128;27;20014;-64
2024/04/17 11:30:35;;;;;;;;;;;10.60;1.00;;;;;;5095757;27;20025;-63
2024/04/17 11:33:03;;;;;;;0.00;0.00;;;10.70;1.00;;;;;;5087367;28;19930;-63
2024/04/17 11:35:29;;;;;;;0.00;0.00;;;10.70;9.20;;;;;;5082786;27;20356;-63
2024/04/17 11:37:55;;;;;;;0.00;0.00;;;10.90;99.90;;;;;;5093671;27;20028;-64
2024/04/17 11:40:21;;;;;;;0.00;0.00;;;10.70;62.20;;;;;;5074976;28;20395;-63
2024/04/17 11:42:47;;;;;;;0.00;0.00;;;10.80;1.00;;;;;;5071461;28;20002;-63
2024/04/17 11:45:13;;;;;;;0.00;0.00;;;10.70;4.20;;;;;;5092852;27;20017;-63
2024/04/17 11:47:40;;;;;;;0.10;0.00;;;10.70;1.00;;;;;;5074872;27;20023;-63
2024/04/17 11:50:10;;;;;;;0.00;0.00;;;10.70;7.90;;;;;;5071922;27;20006;-63
2024/04/17 11:52:36;;;;;;;0.00;0.00;;;10.70;99.90;;;;;;5070791;27;20087;-63
2024/04/17 11:55:02;;;;;;;0.00;0.00;;;10.70;1.00;;;;;;5080383;27;20014;-64
2024/04/17 11:57:29;;;;;;;0.38;0.00;;;10.80;25.10;;;;;;5096689;27;20036;-64
2024/04/17 11:59:56;;;;;;;0.00;0.00;;;10.90;1.00;;;;;;5092270;27;20042;-64
2024/04/17 12:02:23;;;;;;;0.00;0.00;;;11.00;2.70;;;;;;5076730;27;20007;-64
2024/04/17 12:04:49;;;;;;;0.00;0.00;;;11.00;68.60;;;;;;5080870;27;20029;-63
2024/04/17 12:07:16;;;;;;;0.00;0.00;;;11.10;62.30;;;;;;5082440;28;20498;-63
2024/04/17 12:09:47;;;;;;;0.00;0.00;;;10.90;1.00;;;;;;5080695;27;20002;-63
2024/04/17 12:12:13;;;;;;;0.00;0.00;;;10.90;16.80;;;;;;5077516;27;20087;-64
2024/04/17 12:14:41;;;;;;;0.00;0.00;;;10.80;62.20;;;;;;5085997;27;20038;-63
2024/04/17 12:17:08;;;;;;;0.28;0.10;;;10.90;47.60;;;;;;5084976;28;20024;-64
2024/04/17 12:19:35;;;;;;;0.00;0.00;;;10.80;1.00;;;;;;5088092;27;20021;-64
2024/04/17 12:22:02;;;;;;;0.00;0.00;;;10.80;1.00;;;;;;5096932;28;20006;-63
2024/04/17 12:27:18;;;;;;;0.00;0.00;;;11.00;1.00;;;;;;5079078;28;20014;-64
2024/04/17 12:29:44;;;;;;;0.00;0.00;;;11.10;1.00;;;;;;5082646;27;20006;-65
2024/04/17 12:32:10;;;;;;;0.00;0.00;;;11.20;8.20;;;;;;5094217;28;20421;-65
2024/04/17 12:34:38;;;;;;;0.10;0.00;;;11.20;1.00;;;;;;5075014;28;20083;-64
2024/04/17 12:37:04;;;;;;;0.00;0.00;;;11.20;1.00;;;;;;5095267;27;20002;-64
2024/04/17 12:39:30;;;;;;;0.00;0.00;;;11.30;1.00;;;;;;5087675;27;20020;-64
2024/04/17 12:41:56;;;;;;;0.00;0.00;;;11.20;1.00;;;;;;5091435;27;20024;-65
2024/04/17 12:44:22;;;;;;;0.00;0.00;;;11.10;1.00;;;;;;5102677;27;20336;-64
2024/04/17 12:46:47;;;;;;;0.17;0.10;;;11.00;1.00;;;;;;5080101;27;20030;-64
2024/04/17 12:49:15;;;;;;;0.00;0.00;;;11.10;1.00;;;;;;5079323;28;20529;-64
2024/04/17 12:51:42;;;;;;;0.00;0.00;;;11.30;41.40;;;;;;5076767;28;20018;-64
2024/04/17 12:54:08;;;;;;;0.00;0.00;;;11.40;1.00;;;;;;5079540;27;20615;-65
2024/04/17 12:56:34;;;;;;;0.00;0.00;;;11.50;95.90;;;;;;5074571;27;20033;-65
2024/04/17 12:59:02;;;;;;;0.00;0.00;;;11.30;1.00;;;;;;5070381;28;20014;-64